Terminal Aerodrome Forecast
Issued by NWS Mt. Holly, NJ

Current Version | Previous Version | Text Only | Print | Product List | Glossary On
Versions: 1 2 3 4 5 6 7 8 9 10 11 12 13 14 15 16 17 18 19 20 21 22 23 24
000
FTUS41 KPHI 282333
TAFTTN
TAF
KTTN 282333Z 2900/2924 25005KT P6SM SKC
     FM290200 VRB03KT P6SM SCT150 BKN250
     FM291000 22005KT 4SM SHRA BKN015 PROB30 2910/2914 3SM TSRA
      BKN015CB
     FM291500 27010KT P6SM BKN050
     FM292000 27012G18KT P6SM SCT050 BKN150
     FM292200 29009KT P6SM BKN150=

USA.gov is the U.S. government's official web portal to all federal, state and local government web resources and services.